createdAt,value
2018-03-08T00:04:29.931Z,70.46
2018-03-08T00:09:32.400Z,70.46
2018-03-08T00:14:34.873Z,70.46
2018-03-08T00:19:37.348Z,70.53
2018-03-08T00:24:39.824Z,70.53
2018-03-08T00:29:42.334Z,70.55
2018-03-08T00:34:44.870Z,70.58
2018-03-08T00:39:47.360Z,70.60
2018-03-08T00:44:49.911Z,70.71
2018-03-08T00:49:52.360Z,70.61
2018-03-08T00:54:54.826Z,70.35
2018-03-08T00:59:57.283Z,70.18
2018-03-08T01:04:59.752Z,70.27
2018-03-08T01:10:02.225Z,70.25
2018-03-08T01:15:04.705Z,70.29
2018-03-08T01:20:07.166Z,70.27
2018-03-08T01:25:09.648Z,70.32
2018-03-08T01:30:12.146Z,69.87
2018-03-08T01:35:14.636Z,69.62
2018-03-08T01:40:17.151Z,69.14
2018-03-08T01:45:19.636Z,69.20
2018-03-08T01:50:22.117Z,69.23
2018-03-08T01:55:24.585Z,69.23
2018-03-08T02:00:27.038Z,69.31
2018-03-08T02:05:29.513Z,69.17
2018-03-08T02:10:31.968Z,69.22
2018-03-08T02:15:34.445Z,69.23
2018-03-08T02:20:36.900Z,69.19
2018-03-08T02:25:39.344Z,68.90
2018-03-08T02:30:41.852Z,69.00
2018-03-08T02:35:44.327Z,69.12
2018-03-08T02:40:46.777Z,69.20
2018-03-08T02:45:49.273Z,69.87
2018-03-08T02:50:51.760Z,70.12
2018-03-08T02:55:54.250Z,70.27
2018-03-08T03:00:56.705Z,70.39
2018-03-08T03:05:59.169Z,70.33
2018-03-08T03:11:01.639Z,70.32
2018-03-08T03:16:04.101Z,70.30
2018-03-08T03:21:06.571Z,70.23
2018-03-08T03:26:09.044Z,70.04
2018-03-08T03:31:11.520Z,69.89
2018-03-08T03:36:13.994Z,69.84
2018-03-08T03:41:16.492Z,69.91
2018-03-08T03:46:18.967Z,69.99
2018-03-08T03:51:21.409Z,70.15
2018-03-08T03:56:23.909Z,70.23
2018-03-08T04:01:26.476Z,70.40
2018-03-08T04:06:29.138Z,70.31
2018-03-08T04:11:31.606Z,70.14
2018-03-08T04:16:34.068Z,69.93
2018-03-08T04:21:36.533Z,69.81
2018-03-08T04:26:39.006Z,69.63
2018-03-08T04:31:41.474Z,69.49
2018-03-08T04:36:43.965Z,69.47
2018-03-08T04:41:46.449Z,69.36
2018-03-08T04:46:48.946Z,69.30
2018-03-08T04:51:51.399Z,69.43
2018-03-08T04:56:53.861Z,69.48
2018-03-08T05:01:56.318Z,69.45
2018-03-08T05:06:58.841Z,69.52
2018-03-08T05:12:01.303Z,69.87
2018-03-08T05:17:03.768Z,70.16
2018-03-08T05:22:06.225Z,70.25
2018-03-08T05:27:08.721Z,70.23
2018-03-08T05:32:11.304Z,70.14
2018-03-08T05:37:13.827Z,70.01
2018-03-08T05:42:16.328Z,69.87
2018-03-08T05:47:18.807Z,69.80
2018-03-08T05:52:21.290Z,69.66
2018-03-08T05:57:23.794Z,69.62
2018-03-08T06:02:26.244Z,69.77
2018-03-08T06:07:28.688Z,69.86
2018-03-08T06:12:31.151Z,69.40
2018-03-08T06:17:34.747Z,69.18
2018-03-08T06:22:37.330Z,69.18
2018-03-08T06:27:39.802Z,69.39
2018-03-08T06:32:42.303Z,69.56
2018-03-08T06:37:44.840Z,69.43
2018-03-08T06:42:47.375Z,68.84
2018-03-08T06:47:49.863Z,68.62
2018-03-08T06:52:52.335Z,67.90
2018-03-08T06:57:55.609Z,67.71
2018-03-08T07:02:58.069Z,67.80
2018-03-08T07:08:00.665Z,67.74
2018-03-08T07:13:03.246Z,67.73
2018-03-08T07:18:05.721Z,67.89
2018-03-08T07:23:08.214Z,67.84
2018-03-08T07:28:10.671Z,68.14
2018-03-08T07:33:13.170Z,67.62
2018-03-08T07:38:15.636Z,67.62
2018-03-08T07:43:18.154Z,67.55
2018-03-08T07:48:20.624Z,67.70
2018-03-08T07:53:23.127Z,67.42
2018-03-08T07:58:25.612Z,67.42
2018-03-08T08:03:28.071Z,66.92
2018-03-08T08:14:08.454Z,66.84
2018-03-08T08:19:10.915Z,66.98
2018-03-08T08:24:13.794Z,66.69
2018-03-08T08:29:16.254Z,66.50
2018-03-08T08:34:18.768Z,66.39
2018-03-08T08:39:21.255Z,66.19
2018-03-08T08:44:23.839Z,66.04
2018-03-08T08:49:26.324Z,65.88
2018-03-08T08:54:28.788Z,66.17
2018-03-08T08:59:31.279Z,66.20
2018-03-08T09:04:34.860Z,65.89
2018-03-08T09:09:37.328Z,66.41
2018-03-08T09:14:39.794Z,65.67
2018-03-08T09:19:42.272Z,64.96
2018-03-08T09:24:44.741Z,65.85
2018-03-08T09:29:47.230Z,65.60
2018-03-08T09:34:49.728Z,66.04
2018-03-08T09:39:52.195Z,65.73
2018-03-08T09:44:54.649Z,65.91
2018-03-08T09:49:57.239Z,65.70
2018-03-08T09:54:59.706Z,65.69
2018-03-08T10:00:02.184Z,66.17
2018-03-08T10:05:04.639Z,66.06
2018-03-08T10:10:07.152Z,66.12
2018-03-08T10:15:09.615Z,65.93
2018-03-08T10:20:12.068Z,65.72
2018-03-08T10:25:14.550Z,65.38
2018-03-08T10:30:17.031Z,64.95
2018-03-08T10:35:19.557Z,64.44
2018-03-08T10:40:22.079Z,64.60
2018-03-08T10:45:24.581Z,64.12
2018-03-08T10:50:28.227Z,64.17
2018-03-08T10:55:30.663Z,62.89
2018-03-08T11:00:38.899Z,61.25
2018-03-08T11:05:47.414Z,62.17
2018-03-08T11:10:49.840Z,61.83
2018-03-08T11:15:52.433Z,60.76
2018-03-08T11:20:54.910Z,58.64
2018-03-08T11:25:57.374Z,54.50
2018-03-08T11:30:59.830Z,54.16
2018-03-08T11:36:02.305Z,52.91
2018-03-08T11:41:04.768Z,52.24
2018-03-08T11:46:07.244Z,52.36
2018-03-08T11:51:09.730Z,50.62
2018-03-08T11:56:12.199Z,51.67
2018-03-08T12:01:14.666Z,51.02
2018-03-08T12:06:17.223Z,50.21
2018-03-08T12:11:19.690Z,48.29
2018-03-08T12:16:22.178Z,48.89
2018-03-08T12:21:24.749Z,47.71
2018-03-08T12:26:27.273Z,46.62
2018-03-08T12:31:29.770Z,44.66
2018-03-08T12:36:32.244Z,43.52
2018-03-08T12:41:34.706Z,45.14
2018-03-08T12:46:37.193Z,45.22
2018-03-08T12:51:39.730Z,43.77
2018-03-08T12:56:42.208Z,42.74
2018-03-08T13:01:44.688Z,42.36
2018-03-08T13:06:47.142Z,42.61
2018-03-08T13:11:49.700Z,43.70
2018-03-08T13:16:52.193Z,41.51
2018-03-08T13:21:54.694Z,42.07
2018-03-08T13:26:57.178Z,41.16
2018-03-08T13:31:59.683Z,39.43
2018-03-08T13:37:02.182Z,39.13
2018-03-08T13:42:04.682Z,39.65
2018-03-08T13:47:07.169Z,39.28
2018-03-08T13:52:09.681Z,40.00
2018-03-08T13:57:12.978Z,40.74
2018-03-08T14:02:15.487Z,40.17
2018-03-08T14:07:17.932Z,37.01
2018-03-08T14:12:20.461Z,38.55
2018-03-08T14:17:22.933Z,39.29
2018-03-08T14:22:25.387Z,39.68
2018-03-08T14:27:27.854Z,36.67
2018-03-08T14:32:30.326Z,36.26
2018-03-08T14:37:32.794Z,37.17
2018-03-08T14:42:35.255Z,36.40
2018-03-08T14:47:37.875Z,36.26
2018-03-08T14:52:40.357Z,35.42
2018-03-08T14:57:42.826Z,38.00
2018-03-08T15:02:45.324Z,39.13
2018-03-08T15:07:47.769Z,39.63
2018-03-08T15:12:50.260Z,40.24
2018-03-08T15:17:52.729Z,39.90
2018-03-08T15:22:55.210Z,40.71
2018-03-08T15:27:57.717Z,40.84
2018-03-08T15:33:00.190Z,40.76
2018-03-08T15:38:02.642Z,41.87
2018-03-08T15:43:05.113Z,43.09
2018-03-08T15:48:07.567Z,42.64
2018-03-08T15:53:10.044Z,43.01
2018-03-08T15:58:12.563Z,43.05
2018-03-08T16:03:15.082Z,43.74
2018-03-08T16:14:04.933Z,45.16
2018-03-08T16:19:07.396Z,45.09
2018-03-08T16:24:09.871Z,45.71
2018-03-08T16:29:12.420Z,45.94
2018-03-08T16:34:14.862Z,45.89
2018-03-08T16:39:17.345Z,46.66
2018-03-08T16:44:19.828Z,46.25
2018-03-08T16:49:22.402Z,46.64
2018-03-08T16:54:24.924Z,46.84
2018-03-08T16:59:27.401Z,47.00
2018-03-08T17:04:29.921Z,47.09
2018-03-08T17:09:33.220Z,48.23
2018-03-08T17:14:36.067Z,48.55
2018-03-08T17:19:38.519Z,49.06
2018-03-08T17:24:41.465Z,49.72
2018-03-08T17:29:44.229Z,48.93
2018-03-08T17:34:46.727Z,50.02
2018-03-08T17:39:50.298Z,50.61
2018-03-08T17:44:54.743Z,50.90
2018-03-08T17:49:57.258Z,51.90
2018-03-08T17:54:59.763Z,52.23
2018-03-08T18:00:02.252Z,52.83
2018-03-08T18:05:04.711Z,53.50
2018-03-08T18:10:07.195Z,54.42
2018-03-08T18:15:09.680Z,54.94
2018-03-08T18:20:12.192Z,54.44
2018-03-08T18:25:14.658Z,54.77
2018-03-08T18:30:17.141Z,54.77
2018-03-08T18:35:19.605Z,55.07
2018-03-08T18:40:22.110Z,54.67
2018-03-08T18:45:24.592Z,54.53
2018-03-08T18:50:27.090Z,55.35
2018-03-08T18:55:29.541Z,55.65
2018-03-08T19:00:32.045Z,55.77
2018-03-08T19:05:34.494Z,54.50
2018-03-08T19:10:36.988Z,54.03
2018-03-08T19:15:39.508Z,54.01
2018-03-08T19:20:41.971Z,54.46
2018-03-08T19:25:44.444Z,54.70
2018-03-08T19:30:46.946Z,53.82
2018-03-08T19:35:49.442Z,53.19
2018-03-08T19:40:51.910Z,53.23
2018-03-08T19:45:54.568Z,53.31
2018-03-08T19:50:57.028Z,52.73
2018-03-08T19:55:59.536Z,52.36
2018-03-08T20:01:02.258Z,51.73
2018-03-08T20:06:04.724Z,51.85
2018-03-08T20:11:07.202Z,52.71
2018-03-08T20:16:09.742Z,53.02
2018-03-08T20:21:12.233Z,53.05
2018-03-08T20:26:14.696Z,52.74
2018-03-08T20:31:17.165Z,52.75
2018-03-08T20:36:19.653Z,52.47
2018-03-08T20:41:22.161Z,51.88
2018-03-08T20:46:24.779Z,51.66
2018-03-08T20:51:27.238Z,50.58
2018-03-08T20:56:29.710Z,50.93
2018-03-08T21:01:32.146Z,51.26
2018-03-08T21:06:34.620Z,52.78
2018-03-08T21:11:37.085Z,53.33
2018-03-08T21:16:39.533Z,53.22
2018-03-08T21:21:42.012Z,54.15
2018-03-08T21:26:44.469Z,54.47
2018-03-08T21:31:46.955Z,55.64
2018-03-08T21:36:49.415Z,57.00
2018-03-08T21:41:51.918Z,58.14
2018-03-08T21:46:54.414Z,58.42
2018-03-08T21:51:56.879Z,58.90
2018-03-08T21:56:59.384Z,59.24
2018-03-08T22:02:01.827Z,61.08
2018-03-08T22:07:04.301Z,61.92
2018-03-08T22:12:07.675Z,62.67
2018-03-08T22:17:10.112Z,63.48
2018-03-08T22:22:12.599Z,64.31
2018-03-08T22:27:15.037Z,64.58
2018-03-08T22:32:17.492Z,65.53
2018-03-08T22:37:19.967Z,66.13
2018-03-08T22:42:22.459Z,66.79
2018-03-08T22:47:25.034Z,66.92
2018-03-08T22:52:27.542Z,67.52
2018-03-08T22:57:30.032Z,67.12
2018-03-08T23:02:33.384Z,67.49
2018-03-08T23:07:35.865Z,67.48
2018-03-08T23:12:38.321Z,67.38
2018-03-08T23:17:40.788Z,66.34
2018-03-08T23:22:43.260Z,66.96
2018-03-08T23:27:45.755Z,66.84
2018-03-08T23:32:48.237Z,66.92
2018-03-08T23:37:50.677Z,67.00
2018-03-08T23:42:53.137Z,67.69
2018-03-08T23:47:55.623Z,68.26
2018-03-08T23:52:58.101Z,68.78
2018-03-08T23:58:00.559Z,69.12
